Caratinga, Brazil
Current Conditions -  °F | °C
As of 10:00 PM on Sunday 23 Nov 2014 (Local Time) from SBLS Reporting Station
Light Rain Light Rain  
Wind Chill: 68°   Ceiling: 2500
Heat Index: 68°   Visibility: 6mi
Dew Point: 66°   Wind: 8mph
Humidity: 94%   Direction: 160°SSE
Pressure: 30.06"   Gusts: NA
Location:  19.79°S, 42.14°W
Report Text: SBLS 240000Z 16007KT 9999 -RA FEW005 BKN025 OVC080 20/19 Q1018
Loading
Personal Weather Stations






























Interactive Weather Map New forecast layout! Learn more

10-Day Weather Forecast

Advertisements
Track Severe Weather on mobile